• Join FlightAware (Why Join?)
  • Login
  • US Flag 
05:08AM EDT


 

Airport Tracker/Info


-or-


 

Live Flight TrackerFlight Track Log ✈ N529RG ✈ 18-Oct-2013 ✈ KBAK - KARB

Flight Track Log - Related Links

Times and Time Zones

All times are in EDT time to prevent confusion due to time zone crossing. See the N529RG flight status page for this flight to view local times or setup timezone preferences in your user account.

Time Position Orientation Groundspeed Altitude Reporting Facility
EDT Latitude Longitude Course Direction KTS MPH feet Rate Location/Type
04:50PM 39.2500 -85.9167 360° North 114 131 1,400  Level Indianapolis TRACON
04:51PM 39.2833 -85.9167 360° North 124 143 1,800 420 Climbing Indianapolis TRACON
04:52PM 39.3067 -85.8878 44° Northeast 130 150 2,200 420 Climbing Chicago Center
04:53PM 39.3433 -85.8642 26° Northeast 138 159 2,700 420 Climbing Chicago Center
04:54PM 39.3806 -85.8400 27° Northeast 143 165 3,100 420 Climbing Indianapolis Center
04:55PM 39.4156 -85.8153 29° Northeast 145 167 3,600 480 Climbing Indianapolis Center
04:56PM 39.4500 -85.7917 28° Northeast 143 165 4,200 540 Climbing Indianapolis Center
04:57PM 39.4897 -85.7625 30° Northeast 140 161 4,800 480 Climbing Indianapolis Center
04:58PM 39.5233 -85.7400 27° Northeast 138 159 5,300 480 Climbing Indianapolis Center
04:59PM 39.5569 -85.7139 31° Northeast 139 160 5,800 480 Climbing Indianapolis Center
05:00PM 39.5903 -85.6883 31° Northeast 140 161 6,300 480 Climbing Indianapolis Center
05:01PM 39.6239 -85.6611 32° Northeast 141 162 6,800 300 Climbing Indianapolis Center
05:02PM 39.6669 -85.6350 25° Northeast 142 163 7,000 60 Climbing Indianapolis Center
05:03PM 39.7064 -85.6131 23° Northeast 147 169 7,000  Level Indianapolis Center
05:04PM 39.7456 -85.5850 29° Northeast 155 178 7,000  Level Indianapolis Center
05:05PM 39.7794 -85.5469 41° Northeast 159 183 7,100 240 Climbing Indianapolis Center
05:06PM 39.8136 -85.5111 39° Northeast 160 184 7,500 360 Climbing Indianapolis Center
05:07PM 39.8492 -85.4794 34° Northeast 157 181 7,900 420 Climbing Indianapolis Center
05:08PM 39.8944 -85.4453 30° Northeast 157 181 8,400 420 Climbing Indianapolis Center
05:09PM 39.9306 -85.4156 32° Northeast 157 181 8,800 300 Climbing Indianapolis Center
05:10PM 39.9667 -85.3836 34° Northeast 156 180 9,100 120 Climbing Indianapolis Center
05:11PM 40.0047 -85.3522 32° Northeast 159 183 9,100  Level Indianapolis Center
05:12PM 40.0419 -85.3206 33° Northeast 161 185 9,100  Level Indianapolis Center
05:13PM 40.0875 -85.2831 32° Northeast 162 186 9,100  Level Indianapolis Center
05:14PM 40.1261 -85.2553 29° Northeast 160 184 9,100  Level Indianapolis Center
05:15PM 40.1664 -85.2311 25° Northeast 159 183 9,100  Level Indianapolis Center
05:16PM 40.2047 -85.2050 27° Northeast 158 182 9,100  Level Indianapolis Center
05:18PM 40.2425 -85.1792 28° Northeast 154 177 9,100  Level Indianapolis Center
05:19PM 40.2881 -85.1481 28° Northeast 155 178 9,100  Level Indianapolis Center
05:20PM 40.3281 -85.1228 26° Northeast 158 182 9,100  Level Indianapolis Center
05:21PM 40.3678 -85.0997 24° Northeast 158 182 9,200  Climbing Indianapolis Center
05:22PM 40.4086 -85.0775 23° Northeast 159 183 9,100 -60 Descending Indianapolis Center
05:23PM 40.4494 -85.0525 25° Northeast 162 186 9,100  Level Indianapolis Center
05:24PM 40.4903 -85.0286 24° Northeast 161 185 9,100  Level Indianapolis Center
05:25PM 40.5372 -85.0003 25° Northeast 157 181 9,100  Level Indianapolis Center
05:26PM 40.5783 -84.9769 23° Northeast 159 183 9,100  Level Indianapolis Center
05:27PM 40.6192 -84.9533 24° Northeast 161 185 9,100  Level Indianapolis Center
05:28PM 40.6636 -84.9264 25° Northeast 157 181 9,100  Level Chicago Center
05:29PM 40.7042 -84.9031 24° Northeast 159 183 9,100  Level Chicago Center
05:30PM 40.7453 -84.8783 24° Northeast 163 188 9,100  Level Chicago Center
05:31PM 40.7853 -84.8556 23° Northeast 159 183 9,100  Level Chicago Center
05:32PM 40.8267 -84.8314 24° Northeast 161 185 9,100  Level Chicago Center
05:33PM 40.8756 -84.8022 24° Northeast 162 186 9,100  Level Chicago Center
05:34PM 40.9156 -84.7775 25° Northeast 160 184 9,100  Level Chicago Center
05:35PM 40.9578 -84.7544 22° Northeast 162 186 9,100  Level Chicago Center
05:36PM 40.9981 -84.7303 24° Northeast 161 185 9,100  Level Chicago Center
05:37PM 41.0383 -84.7064 24° Northeast 160 184 9,100  Level Chicago Center
05:38PM 41.0803 -84.6806 25° Northeast 164 189 9,100  Level Chicago Center
05:39PM 41.1303 -84.6519 23° Northeast 163 188 9,100  Level Chicago Center
05:40PM 41.1728 -84.6267 24° Northeast 166 191 9,100  Level Chicago Center
05:41PM 41.2144 -84.6014 25° Northeast 167 192 9,100  Level Chicago Center
05:42PM 41.2544 -84.5775 24° Northeast 164 189 9,100  Level Chicago Center
05:43PM 41.2961 -84.5531 24° Northeast 163 188 9,100  Level Chicago Center
05:44PM 41.3458 -84.5225 25° Northeast 164 189 9,100  Level Chicago Center
05:45PM 41.3875 -84.4986 23° Northeast 164 189 9,100  Level Chicago Center
05:46PM 41.4283 -84.4736 25° Northeast 163 188 9,100  Level Chicago Center
05:48PM 41.4697 -84.4492 24° Northeast 163 188 9,100  Level Chicago Center
05:49PM 41.5114 -84.4231 25° Northeast 164 189 9,100  Level Chicago Center
05:50PM 41.5606 -84.3953 23° Northeast 162 186 9,100  Level Chicago Center
05:51PM 41.6000 -84.3714 24° Northeast 160 184 9,100 -60 Level Chicago Center
05:52PM 41.6408 -84.3464 25° Northeast 160 184 9,000 -300 Descending Chicago Center
05:52PM 41.6656 -84.3297 27° Northeast 167 192 8,700 -420 Descending Cleveland Center
05:53PM 41.7106 -84.3025 24° Northeast 174 200 8,400 -360 Descending Cleveland Center
05:54PM 41.7647 -84.2714 23° Northeast 181 208 8,000 -300 Descending Cleveland Center
05:55PM 41.8042 -84.2444 27° Northeast 177 204 7,800 -300 Descending Cleveland Center
05:56PM 41.8419 -84.2006 41° Northeast 180 207 7,500 -360 Descending Cleveland Center
05:57PM 41.8656 -84.1719 42° Northeast 181 208 7,300 -300 Descending Cleveland Center
05:57PM 41.8786 -84.1556 43° Northeast 181 208 7,200 -420 Descending Cleveland Center
05:58PM 41.9028 -84.1300 38° Northeast 178 205 6,900 -540 Descending Cleveland Center
05:58PM 41.9233 -84.1036 44° Northeast 178 205 6,700 -360 Descending Cleveland Center
05:59PM 41.9425 -84.0825 39° Northeast 178 205 6,500 -420 Descending Cleveland Center
06:00PM 41.9606 -84.0583 45° Northeast 179 206 6,300 -420 Descending Cleveland Center
06:00PM 41.9819 -84.0353 39° Northeast 177 204 6,100 -240 Descending Cleveland Center
06:01PM 41.9967 -84.0161 44° Northeast 176 203 6,100  Level Cleveland Center
06:01PM 42.0172 -83.9928 40° Northeast 171 197 6,100 -240 Level Cleveland Center
06:02PM 42.0311 -83.9736 46° Northeast 170 196 5,900 -420 Descending Cleveland Center
06:02PM 42.0542 -83.9506 37° Northeast 170 196 5,700 -420 Descending Cleveland Center
06:03PM 42.0672 -83.9308 48° Northeast 172 198 5,500 -600 Descending Cleveland Center
06:03PM 42.0897 -83.9022 43° Northeast 172 198 5,100 -720 Descending Cleveland Center
06:04PM 42.1008 -83.8847 49° Northeast 172 198 4,800 -900 Descending Cleveland Center
06:04PM 42.1189 -83.8531 52° Northeast 169 194 4,200 -1,020 Descending Cleveland Center
06:05PM 42.1317 -83.8264 57° Northeast 166 191 3,800 -840 Descending Cleveland Center
06:05PM 42.1419 -83.8031 59° Northeast 155 178 3,400 -780 Descending Cleveland Center
06:06PM 42.1536 -83.7775 58° Northeast 159 183 3,000 -780 Descending Cleveland Center
06:06PM 42.1675 -83.7703 21° North 139 160 2,700 -600 Descending Cleveland Center
06:07PM 42.1875 -83.7553 29° Northeast 146 168 2,400 -540 Descending Cleveland Center
06:07PM 42.2008 -83.7497 17° North 122 140 2,200 -540 Descending Cleveland Center
06:08PM 42.2117 -83.7256 59° Northeast 134 154 1,900 -600 Descending Cleveland Center
06:08PM 42.2228 -83.7106 45° Northeast 121 139 1,600 -600 Descending Cleveland Center
06:09PM 42.2325 -83.7164 336° Northwest 120 138 1,300 -360 Descending Cleveland Center
06:10PM 42.2206 -83.7456 241° Southwest 102 117 1,000 -300 Descending Cleveland Center